Anderson Island, Washington
Current Conditions -  °F | °C
As of 1:43 PM on Wednesday 17 Dec 2014 (Local Time) from KGRF Reporting Station
Drizzle Drizzle  
Wind Chill: 45°   Ceiling: 700
Heat Index: 45°   Visibility: 10mi
Dew Point: 45°   Wind: 2mph
Humidity: 100%   Direction: 100°E
Pressure: 29.83"   Gusts: NA
Location:  47.16°N, 122.7°W
Report Text: KGRF 172143Z AUTO 10002KT 10SM DZ BKN007 OVC055 07/07 A2983 RMK AO2 CIG 006V050
Loading
Personal Weather Stations






























Interactive Weather Map New forecast layout! Learn more

10-Day Weather Forecast

Advertisements
Track Severe Weather on mobile